createdAt,value
2023-03-14T00:02:17.530Z,11.38
2023-03-14T00:04:45.959Z,11.35
2023-03-14T00:07:15.832Z,11.30
2023-03-14T00:09:44.292Z,11.26
2023-03-14T00:12:12.696Z,11.22
2023-03-14T00:14:43.513Z,11.18
2023-03-14T00:17:12.399Z,11.14
2023-03-14T00:19:40.895Z,11.12
2023-03-14T00:22:09.242Z,11.10
2023-03-14T00:24:39.062Z,11.10
2023-03-14T00:27:07.421Z,11.12
2023-03-14T00:29:35.795Z,11.11
2023-03-14T00:32:04.396Z,11.10
2023-03-14T00:34:33.037Z,11.07
2023-03-14T00:37:01.342Z,11.06
2023-03-14T00:39:29.757Z,11.01
2023-03-14T00:41:59.494Z,10.99
2023-03-14T00:44:28.015Z,10.98
2023-03-14T00:46:58.101Z,10.98
2023-03-14T00:49:26.704Z,10.97
2023-03-14T00:51:55.133Z,10.96
2023-03-14T00:54:23.533Z,10.95
2023-03-14T00:56:51.860Z,10.92
2023-03-14T00:59:21.571Z,10.91
2023-03-14T01:01:50.111Z,10.92
2023-03-14T01:04:18.575Z,10.85
2023-03-14T01:06:46.926Z,10.80
2023-03-14T01:09:15.292Z,10.80
2023-03-14T01:11:47.339Z,10.80
2023-03-14T01:14:15.858Z,10.79
2023-03-14T01:16:45.619Z,10.77
2023-03-14T01:19:14.133Z,10.75
2023-03-14T01:21:42.609Z,10.74
2023-03-14T01:24:13.345Z,10.72
2023-03-14T01:26:41.722Z,10.69
2023-03-14T01:29:10.113Z,10.69
2023-03-14T01:31:38.538Z,10.69
2023-03-14T01:34:08.285Z,10.70
2023-03-14T01:36:36.661Z,10.66
2023-03-14T01:39:07.041Z,10.58
2023-03-14T01:41:35.422Z,10.54
2023-03-14T01:44:03.874Z,10.49
2023-03-14T01:46:40.946Z,10.48
2023-03-14T01:49:27.959Z,10.51
2023-03-14T01:52:00.589Z,10.53
2023-03-14T01:54:33.057Z,10.52
2023-03-14T01:57:06.973Z,10.52
2023-03-14T01:59:37.698Z,10.54
2023-03-14T02:02:09.701Z,10.52
2023-03-14T02:04:41.063Z,10.49
2023-03-14T02:07:14.639Z,10.50
2023-03-14T02:09:43.644Z,10.51
2023-03-14T02:12:15.905Z,10.45
2023-03-14T02:14:48.926Z,10.42
2023-03-14T02:17:19.932Z,10.42
2023-03-14T02:20:06.999Z,10.46
2023-03-14T02:22:36.573Z,10.47
2023-03-14T02:25:10.522Z,10.45
2023-03-14T02:27:44.189Z,10.42
2023-03-14T02:30:16.447Z,10.39
2023-03-14T02:32:48.648Z,10.38
2023-03-14T02:35:21.738Z,10.36
2023-03-14T02:37:54.943Z,10.33
2023-03-14T02:40:23.833Z,10.32
2023-03-14T02:42:54.096Z,10.31
2023-03-14T02:45:46.454Z,10.28
2023-03-14T02:48:18.728Z,10.24
2023-03-14T02:50:49.494Z,10.22
2023-03-14T02:53:20.764Z,10.23
2023-03-14T02:55:50.184Z,10.26
2023-03-14T02:58:21.710Z,10.28
2023-03-14T03:00:50.749Z,10.29
2023-03-14T03:03:19.243Z,10.31
2023-03-14T03:05:51.447Z,10.30
2023-03-14T03:08:19.975Z,10.23
2023-03-14T03:10:48.587Z,10.18
2023-03-14T03:13:17.757Z,10.13
2023-03-14T03:15:57.886Z,10.12
2023-03-14T03:18:26.298Z,10.15
2023-03-14T03:20:54.653Z,10.17
2023-03-14T03:23:27.777Z,10.15
2023-03-14T03:25:56.133Z,10.10
2023-03-14T03:28:24.464Z,10.04
2023-03-14T03:30:52.952Z,9.99
2023-03-14T03:33:23.526Z,9.93
2023-03-14T03:35:53.432Z,9.89
2023-03-14T03:38:22.217Z,9.84
2023-03-14T03:40:50.587Z,9.81
2023-03-14T03:43:19.318Z,9.77
2023-03-14T03:45:47.756Z,9.77
2023-03-14T03:48:16.098Z,9.77
2023-03-14T03:50:48.023Z,9.75
2023-03-14T03:53:26.970Z,9.72
2023-03-14T03:55:59.182Z,9.70
2023-03-14T03:58:27.526Z,9.70
2023-03-14T04:00:56.452Z,9.72
2023-03-14T04:03:25.070Z,9.74
2023-03-14T04:06:02.551Z,9.74
2023-03-14T04:08:31.693Z,9.74
2023-03-14T04:11:01.233Z,9.74
2023-03-14T04:13:30.391Z,9.72
2023-03-14T04:15:58.861Z,9.71
2023-03-14T04:18:30.467Z,9.69
2023-03-14T04:21:01.049Z,9.69
2023-03-14T04:23:29.426Z,9.66
2023-03-14T04:25:57.786Z,9.67
2023-03-14T04:28:26.118Z,9.68
2023-03-14T04:30:54.505Z,9.65
2023-03-14T04:33:22.871Z,9.66
2023-03-14T04:35:52.096Z,9.68
2023-03-14T04:38:21.966Z,9.71
2023-03-14T04:40:50.352Z,9.71
2023-03-14T04:43:18.745Z,9.73
2023-03-14T04:45:47.172Z,9.73
2023-03-14T04:48:15.798Z,9.74
2023-03-14T04:50:44.170Z,9.73
2023-03-14T04:53:12.502Z,9.72
2023-03-14T04:55:42.201Z,9.68
2023-03-14T04:58:10.618Z,9.64
2023-03-14T05:00:39.909Z,9.62
2023-03-14T05:03:08.416Z,9.61
2023-03-14T05:05:36.935Z,9.61
2023-03-14T05:08:05.579Z,9.60
2023-03-14T05:10:33.886Z,9.59
2023-03-14T05:13:03.679Z,9.61
2023-03-14T05:15:32.058Z,9.60
2023-03-14T05:18:00.506Z,9.63
2023-03-14T05:20:29.035Z,9.64
2023-03-14T05:22:57.399Z,9.65
2023-03-14T05:25:25.786Z,9.66
2023-03-14T05:27:55.994Z,9.68
2023-03-14T05:30:25.964Z,9.68
2023-03-14T05:32:54.285Z,9.68
2023-03-14T05:35:23.369Z,9.61
2023-03-14T05:37:51.731Z,9.55
2023-03-14T05:40:20.127Z,9.53
2023-03-14T05:42:48.699Z,9.50
2023-03-14T05:45:17.252Z,9.48
2023-03-14T05:47:46.967Z,9.42
2023-03-14T05:50:15.330Z,9.39
2023-03-14T05:52:43.677Z,9.38
2023-03-14T05:55:12.021Z,9.36
2023-03-14T05:57:40.432Z,9.37
2023-03-14T06:00:10.244Z,9.36
2023-03-14T06:02:38.582Z,9.34
2023-03-14T06:05:09.956Z,9.35
2023-03-14T06:07:38.273Z,9.36
2023-03-14T06:10:07.886Z,9.34
2023-03-14T06:12:36.352Z,9.33
2023-03-14T06:15:04.878Z,9.31
2023-03-14T06:17:33.272Z,9.30
2023-03-14T06:20:01.736Z,9.26
2023-03-14T06:22:31.463Z,9.25
2023-03-14T06:24:59.808Z,9.22
2023-03-14T06:27:28.247Z,9.21
2023-03-14T06:29:56.610Z,9.20
2023-03-14T06:32:25.660Z,9.19
2023-03-14T06:34:54.262Z,9.19
2023-03-14T06:37:22.658Z,9.17
2023-03-14T06:39:52.379Z,9.17
2023-03-14T06:42:20.756Z,9.18
2023-03-14T06:44:49.326Z,9.17
2023-03-14T06:47:17.694Z,9.16
2023-03-14T06:49:46.237Z,9.15
2023-03-14T06:52:14.609Z,9.15
2023-03-14T06:54:42.979Z,9.16
2023-03-14T06:57:12.752Z,9.17
2023-03-14T06:59:41.168Z,9.19
2023-03-14T07:02:14.383Z,9.18
2023-03-14T07:04:43.240Z,9.19
2023-03-14T07:07:11.649Z,9.23
2023-03-14T07:09:40.396Z,9.28
2023-03-14T07:12:08.898Z,9.32
2023-03-14T07:14:38.624Z,9.35
2023-03-14T07:17:07.247Z,9.37
2023-03-14T07:19:35.615Z,9.35
2023-03-14T07:22:04.027Z,9.38
2023-03-14T07:24:32.451Z,9.38
2023-03-14T07:27:00.784Z,9.37
2023-03-14T07:29:29.138Z,9.36
2023-03-14T07:31:58.883Z,9.36
2023-03-14T07:34:27.293Z,9.33
2023-03-14T07:36:55.764Z,9.33
2023-03-14T07:39:24.311Z,9.30
2023-03-14T07:41:52.646Z,9.31
2023-03-14T07:44:21.198Z,9.29
2023-03-14T07:46:49.747Z,9.28
2023-03-14T07:49:19.686Z,9.26
2023-03-14T07:51:50.096Z,9.25
2023-03-14T07:54:20.208Z,9.26
2023-03-14T07:56:49.533Z,9.25
2023-03-14T07:59:17.971Z,9.24
2023-03-14T08:01:46.528Z,9.25
2023-03-14T08:04:15.031Z,9.23
2023-03-14T08:06:44.880Z,9.22
2023-03-14T08:09:13.278Z,9.17
2023-03-14T08:11:41.745Z,9.13
2023-03-14T08:14:12.023Z,9.11
2023-03-14T08:16:40.466Z,9.09
2023-03-14T08:19:08.924Z,9.09
2023-03-14T08:21:37.330Z,9.09
2023-03-14T08:24:07.630Z,9.07
2023-03-14T08:26:36.196Z,9.04
2023-03-14T08:29:05.510Z,9.02
2023-03-14T08:31:33.950Z,9.01
2023-03-14T08:34:02.866Z,9.03
2023-03-14T08:36:31.917Z,9.01
2023-03-14T08:39:00.408Z,9.01
2023-03-14T08:41:30.172Z,8.99
2023-03-14T08:43:58.650Z,8.98
2023-03-14T08:46:27.233Z,8.98
2023-03-14T08:48:57.522Z,8.98
2023-03-14T08:51:25.906Z,8.98
2023-03-14T08:53:54.266Z,8.97
2023-03-14T08:56:25.474Z,8.98
2023-03-14T08:58:55.757Z,8.99
2023-03-14T09:01:26.371Z,9.02
2023-03-14T09:03:54.798Z,9.05
2023-03-14T09:06:23.253Z,9.08
2023-03-14T09:08:51.607Z,9.09
2023-03-14T09:11:19.975Z,9.12
2023-03-14T09:13:49.624Z,9.15
2023-03-14T09:16:19.465Z,9.15
2023-03-14T09:18:47.880Z,9.18
2023-03-14T09:21:17.060Z,9.20
2023-03-14T09:23:46.846Z,9.20
2023-03-14T09:26:15.331Z,9.24
2023-03-14T09:28:43.734Z,9.27
2023-03-14T09:31:13.999Z,9.27
2023-03-14T09:33:43.764Z,9.25
2023-03-14T09:36:12.603Z,9.24
2023-03-14T09:38:41.188Z,9.26
2023-03-14T09:41:23.222Z,9.23
2023-03-14T09:44:04.122Z,9.15
2023-03-14T09:46:34.935Z,9.06
2023-03-14T09:49:09.989Z,9.05
2023-03-14T09:51:39.342Z,9.04
2023-03-14T09:54:11.354Z,9.05
2023-03-14T09:56:39.833Z,9.09
2023-03-14T09:59:15.165Z,9.10
2023-03-14T10:01:43.574Z,9.15
2023-03-14T10:04:17.860Z,9.20
2023-03-14T10:06:46.246Z,9.26
2023-03-14T10:09:26.091Z,9.31
2023-03-14T10:12:08.920Z,9.34
2023-03-14T10:14:40.187Z,9.36
2023-03-14T10:17:11.431Z,9.37
2023-03-14T10:19:53.685Z,9.41
2023-03-14T10:22:23.541Z,9.45
2023-03-14T10:24:55.160Z,9.49
2023-03-14T10:27:29.539Z,9.54
2023-03-14T10:29:59.947Z,9.58
2023-03-14T10:32:35.368Z,9.59
2023-03-14T10:35:22.786Z,9.58
2023-03-14T10:37:55.417Z,9.55
2023-03-14T10:40:32.040Z,9.51
2023-03-14T10:43:01.282Z,9.43
2023-03-14T10:45:40.815Z,9.34
2023-03-14T10:48:23.139Z,9.26
2023-03-14T10:50:57.995Z,9.20
2023-03-14T10:53:27.888Z,9.14
2023-03-14T10:55:58.500Z,9.11
2023-03-14T10:58:31.744Z,9.06
2023-03-14T11:01:10.611Z,9.03
2023-03-14T11:03:43.191Z,9.02
2023-03-14T11:06:18.309Z,9.01
2023-03-14T11:08:55.742Z,8.97
2023-03-14T11:11:27.062Z,8.93
2023-03-14T11:14:09.485Z,8.97
2023-03-14T11:16:49.968Z,8.99
2023-03-14T11:19:38.903Z,8.98
2023-03-14T11:22:16.936Z,8.98
2023-03-14T11:24:58.652Z,9.02
2023-03-14T11:27:35.318Z,9.11
2023-03-14T11:30:17.692Z,9.20
2023-03-14T11:32:48.298Z,9.34
2023-03-14T11:35:23.228Z,9.49
2023-03-14T11:37:58.370Z,9.68
2023-03-14T11:40:29.288Z,9.77
2023-03-14T11:43:04.997Z,9.81
2023-03-14T11:45:39.305Z,9.93
2023-03-14T11:48:28.880Z,10.06
2023-03-14T11:50:59.980Z,10.25
2023-03-14T11:53:41.401Z,10.41
2023-03-14T11:56:16.520Z,10.51
2023-03-14T11:58:58.328Z,10.64
2023-03-14T12:01:50.285Z,10.67
2023-03-14T12:04:28.295Z,10.75
2023-03-14T12:07:04.015Z,10.90
2023-03-14T12:09:34.263Z,11.03
2023-03-14T12:12:05.997Z,11.06
2023-03-14T12:14:36.549Z,11.06
2023-03-14T12:17:08.726Z,11.01
2023-03-14T12:19:39.768Z,10.98
2023-03-14T12:22:20.785Z,10.93
2023-03-14T12:24:56.874Z,10.93
2023-03-14T12:28:13.898Z,10.88
2023-03-14T12:30:44.341Z,10.79
2023-03-14T12:33:35.484Z,10.71
2023-03-14T12:36:21.249Z,10.68
2023-03-14T12:39:01.287Z,10.69
2023-03-14T12:41:40.481Z,10.73
2023-03-14T12:44:45.730Z,10.83
2023-03-14T12:47:54.139Z,10.88
2023-03-14T12:50:28.361Z,10.92
2023-03-14T12:53:29.507Z,10.90
2023-03-14T12:56:04.588Z,10.86
2023-03-14T12:58:40.269Z,10.82
2023-03-14T13:01:17.859Z,10.80
2023-03-14T13:03:49.488Z,10.78
2023-03-14T13:06:49.327Z,10.76
2023-03-14T13:10:00.575Z,10.78
2023-03-14T13:12:36.478Z,10.76
2023-03-14T13:15:19.135Z,10.79
2023-03-14T13:17:49.807Z,10.84
2023-03-14T13:20:24.980Z,10.82
2023-03-14T13:22:53.313Z,10.76
2023-03-14T13:25:23.036Z,10.71
2023-03-14T13:27:56.548Z,10.66
2023-03-14T13:30:29.695Z,10.57
2023-03-14T13:32:58.424Z,10.53
2023-03-14T13:35:29.810Z,10.50
2023-03-14T13:38:11.116Z,10.42
2023-03-14T13:40:40.979Z,10.41
2023-03-14T13:43:18.261Z,10.38
2023-03-14T13:45:52.208Z,10.40
2023-03-14T13:48:22.666Z,10.45
2023-03-14T13:50:57.008Z,10.50
2023-03-14T13:53:26.413Z,10.55
2023-03-14T13:55:55.531Z,10.60
2023-03-14T13:58:27.353Z,10.68
2023-03-14T14:01:01.319Z,10.78
2023-03-14T14:03:30.354Z,10.90
2023-03-14T14:05:59.956Z,10.98
2023-03-14T14:08:29.093Z,11.01
2023-03-14T14:11:05.487Z,11.00
2023-03-14T14:13:36.952Z,10.98
2023-03-14T14:16:07.704Z,10.89
2023-03-14T14:18:37.317Z,10.79
2023-03-14T14:21:06.349Z,10.69
2023-03-14T14:23:35.115Z,10.55
2023-03-14T14:26:08.939Z,10.42
2023-03-14T14:28:39.384Z,10.35
2023-03-14T14:31:23.090Z,10.29
2023-03-14T14:33:59.467Z,10.24
2023-03-14T14:36:31.572Z,10.23
2023-03-14T14:39:02.362Z,10.23
2023-03-14T14:41:36.428Z,10.22
2023-03-14T14:44:06.178Z,10.16
2023-03-14T14:46:39.210Z,10.11
2023-03-14T14:49:13.697Z,10.07
2023-03-14T14:51:44.663Z,10.01
2023-03-14T14:54:18.340Z,9.92
2023-03-14T14:56:51.252Z,9.83
2023-03-14T14:59:29.927Z,9.74
2023-03-14T15:02:01.672Z,9.60
2023-03-14T15:04:32.880Z,9.41
2023-03-14T15:07:01.590Z,9.12
2023-03-14T15:09:30.159Z,8.74
2023-03-14T15:11:58.524Z,8.48
2023-03-14T15:14:27.014Z,8.36
2023-03-14T15:16:55.456Z,8.35
2023-03-14T15:19:27.798Z,8.29
2023-03-14T15:21:56.144Z,8.24
2023-03-14T15:24:24.998Z,8.21
2023-03-14T15:26:53.679Z,8.23
2023-03-14T15:29:22.461Z,8.25
2023-03-14T15:31:51.040Z,8.30
2023-03-14T15:34:19.641Z,8.34
2023-03-14T15:36:49.647Z,8.35
2023-03-14T15:39:18.211Z,8.35
2023-03-14T15:41:46.955Z,8.36
2023-03-14T15:44:15.311Z,8.40
2023-03-14T15:46:43.675Z,8.45
2023-03-14T15:49:12.171Z,8.48
2023-03-14T15:51:40.567Z,8.50
2023-03-14T15:54:10.251Z,8.57
2023-03-14T15:56:40.477Z,8.60
2023-03-14T15:59:09.500Z,8.62
2023-03-14T16:01:38.138Z,8.68
2023-03-14T16:04:06.664Z,8.74
2023-03-14T16:06:36.330Z,8.80
2023-03-14T16:09:05.259Z,8.83
2023-03-14T16:11:35.123Z,8.85
2023-03-14T16:14:03.554Z,8.85
2023-03-14T16:16:32.149Z,8.64
2023-03-14T16:19:00.654Z,8.21
2023-03-14T16:21:29.020Z,7.81
2023-03-14T16:23:57.586Z,7.71
2023-03-14T16:26:26.112Z,7.71
2023-03-14T16:28:55.802Z,7.72
2023-03-14T16:31:26.097Z,7.74
2023-03-14T16:33:54.553Z,7.76
2023-03-14T16:36:23.041Z,7.78
2023-03-14T16:38:51.643Z,7.76
2023-03-14T16:41:23.017Z,7.72
2023-03-14T16:43:53.126Z,7.69
2023-03-14T16:46:25.089Z,7.68
2023-03-14T16:48:53.932Z,7.67
2023-03-14T16:51:22.802Z,7.62
2023-03-14T16:53:51.506Z,7.61
2023-03-14T16:56:20.072Z,7.57
2023-03-14T16:58:48.762Z,7.57
2023-03-14T17:01:19.060Z,7.55
2023-03-14T17:03:50.709Z,7.58
2023-03-14T17:06:23.689Z,7.59
2023-03-14T17:08:52.222Z,7.56
2023-03-14T17:11:20.803Z,7.57
2023-03-14T17:13:49.252Z,7.58
2023-03-14T17:16:17.783Z,7.60
2023-03-14T17:18:46.164Z,7.59
2023-03-14T17:21:16.028Z,7.58
2023-03-14T17:23:44.806Z,7.58
2023-03-14T17:26:14.149Z,7.58
2023-03-14T17:28:42.632Z,7.59
2023-03-14T17:31:14.588Z,7.59
2023-03-14T17:33:43.548Z,7.60
2023-03-14T17:36:13.850Z,7.55
2023-03-14T17:38:43.722Z,7.54
2023-03-14T17:41:13.506Z,7.48
2023-03-14T17:43:42.694Z,7.43
2023-03-14T17:46:15.117Z,7.39
2023-03-14T17:48:45.449Z,7.30
2023-03-14T17:51:16.326Z,7.24
2023-03-14T17:53:46.151Z,7.20
2023-03-14T17:56:14.571Z,7.16
2023-03-14T17:58:44.210Z,7.09
2023-03-14T18:01:14.463Z,7.05
2023-03-14T18:03:43.485Z,7.03
2023-03-14T18:06:16.698Z,7.06
2023-03-14T18:08:47.473Z,7.09
2023-03-14T18:11:16.293Z,7.13
2023-03-14T18:13:45.106Z,7.16
2023-03-14T18:16:15.103Z,7.17
2023-03-14T18:18:47.801Z,7.18
2023-03-14T18:21:17.229Z,7.20
2023-03-14T18:23:48.542Z,7.20
2023-03-14T18:26:17.268Z,7.20
2023-03-14T18:28:47.066Z,7.18
2023-03-14T18:31:19.091Z,7.17
2023-03-14T18:33:48.598Z,7.17
2023-03-14T18:36:19.886Z,7.19
2023-03-14T18:38:57.010Z,7.16
2023-03-14T18:41:28.009Z,7.14
2023-03-14T18:43:59.088Z,7.13
2023-03-14T18:46:29.384Z,7.13
2023-03-14T18:49:04.134Z,7.13
2023-03-14T18:51:36.218Z,7.14
2023-03-14T18:54:10.261Z,7.12
2023-03-14T18:56:42.158Z,7.11
2023-03-14T18:59:13.538Z,7.08
2023-03-14T19:01:43.980Z,7.09
2023-03-14T19:04:14.252Z,7.12
2023-03-14T19:06:44.491Z,7.11
2023-03-14T19:09:19.315Z,7.09
2023-03-14T19:11:49.890Z,7.10
2023-03-14T19:14:21.417Z,7.10
2023-03-14T19:16:51.657Z,7.10
2023-03-14T19:19:20.485Z,7.12
2023-03-14T19:21:50.314Z,7.16
2023-03-14T19:24:23.558Z,7.19
2023-03-14T19:26:54.816Z,7.17
2023-03-14T19:29:25.684Z,7.13
2023-03-14T19:31:58.583Z,7.14
2023-03-14T19:34:29.206Z,7.16
2023-03-14T19:36:59.038Z,7.19
2023-03-14T19:39:31.180Z,7.20
2023-03-14T19:42:01.083Z,7.23
2023-03-14T19:44:29.706Z,7.30
2023-03-14T19:46:58.156Z,7.35
2023-03-14T19:49:28.006Z,7.37
2023-03-14T19:51:56.449Z,7.40
2023-03-14T19:54:24.819Z,7.40
2023-03-14T19:56:54.597Z,7.39
2023-03-14T19:59:22.996Z,7.37
2023-03-14T20:01:52.597Z,7.38
2023-03-14T20:04:21.160Z,7.42
2023-03-14T20:06:49.583Z,7.45
2023-03-14T20:09:18.069Z,7.47
2023-03-14T20:11:46.618Z,7.54
2023-03-14T20:14:16.798Z,7.57
2023-03-14T20:16:45.286Z,7.61
2023-03-14T20:19:15.405Z,7.65
2023-03-14T20:21:43.771Z,7.66
2023-03-14T20:24:12.265Z,7.69
2023-03-14T20:26:40.756Z,7.68
2023-03-14T20:29:09.321Z,7.66
2023-03-14T20:31:40.258Z,7.64
2023-03-14T20:34:09.510Z,7.66
2023-03-14T20:36:38.095Z,7.68
2023-03-14T20:39:06.977Z,7.71
2023-03-14T20:41:41.811Z,7.66
2023-03-14T20:44:11.252Z,7.66
2023-03-14T20:46:41.789Z,7.70
2023-03-14T20:49:10.628Z,7.74
2023-03-14T20:51:39.046Z,7.76
2023-03-14T20:54:08.962Z,7.76
2023-03-14T20:56:37.456Z,7.77
2023-03-14T20:59:08.429Z,7.76
2023-03-14T21:01:36.869Z,7.75
2023-03-14T21:04:07.085Z,7.75
2023-03-14T21:06:35.728Z,7.76
2023-03-14T21:09:05.488Z,7.71
2023-03-14T21:11:36.426Z,7.67
2023-03-14T21:14:05.326Z,7.64
2023-03-14T21:16:34.087Z,7.57
2023-03-14T21:19:02.627Z,7.42
2023-03-14T21:21:32.416Z,7.13
2023-03-14T21:24:02.512Z,6.99
2023-03-14T21:26:31.663Z,6.85
2023-03-14T21:29:03.013Z,6.79
2023-03-14T21:31:31.500Z,6.65
2023-03-14T21:34:00.927Z,6.09
2023-03-14T21:36:29.279Z,5.75
2023-03-14T21:39:01.708Z,5.67
2023-03-14T21:41:30.076Z,5.52
2023-03-14T21:43:58.518Z,5.48
2023-03-14T21:46:26.992Z,5.45
2023-03-14T21:48:55.466Z,5.41
2023-03-14T21:51:31.223Z,5.39
2023-03-14T21:54:01.045Z,5.44
2023-03-14T21:56:29.565Z,5.51
2023-03-14T21:59:00.104Z,5.51
2023-03-14T22:01:28.839Z,5.52
2023-03-14T22:03:57.542Z,5.54
2023-03-14T22:06:25.948Z,5.55
2023-03-14T22:08:55.276Z,5.57
2023-03-14T22:11:25.661Z,5.58
2023-03-14T22:13:54.835Z,5.62
2023-03-14T22:16:23.286Z,5.64
2023-03-14T22:18:51.720Z,5.65
2023-03-14T22:21:20.300Z,5.70
2023-03-14T22:23:49.997Z,5.71
2023-03-14T22:26:18.484Z,5.69
2023-03-14T22:28:48.343Z,5.69
2023-03-14T22:31:16.831Z,5.70
2023-03-14T22:33:45.539Z,5.66
2023-03-14T22:36:13.993Z,5.67
2023-03-14T22:38:42.467Z,5.71
2023-03-14T22:41:10.859Z,5.72
2023-03-14T22:43:39.234Z,5.67
2023-03-14T22:46:09.246Z,5.66
2023-03-14T22:48:37.693Z,5.68
2023-03-14T22:51:08.786Z,5.70
2023-03-14T22:53:37.947Z,5.65
2023-03-14T22:56:07.855Z,5.62
2023-03-14T22:58:37.055Z,5.63
2023-03-14T23:01:06.599Z,5.59
2023-03-14T23:03:36.421Z,5.60
2023-03-14T23:06:06.362Z,5.55
2023-03-14T23:08:34.939Z,5.56
2023-03-14T23:11:04.659Z,5.62
2023-03-14T23:13:33.425Z,5.65
2023-03-14T23:16:02.752Z,5.65
2023-03-14T23:18:31.205Z,5.68
2023-03-14T23:21:12.666Z,5.69
2023-03-14T23:23:42.052Z,5.71
2023-03-14T23:26:12.108Z,5.73
2023-03-14T23:28:41.494Z,5.72
2023-03-14T23:31:14.498Z,5.75
2023-03-14T23:33:43.621Z,5.78
2023-03-14T23:36:14.752Z,5.83
2023-03-14T23:38:44.303Z,5.88
2023-03-14T23:41:14.520Z,5.90
2023-03-14T23:43:44.309Z,5.88
2023-03-14T23:46:13.197Z,5.90
2023-03-14T23:48:42.154Z,5.86
2023-03-14T23:51:13.261Z,5.81
2023-03-14T23:53:41.946Z,5.82
2023-03-14T23:56:11.796Z,5.82
2023-03-14T23:58:40.151Z,5.80
